Time;durP1;ratioP1;P1;durP2;ratioP2;P2;SDS_P1;SDS_P2;PMS_P1;PMS_P2;Temp;Humidity;BMP_temperature;BMP_pressure;BME280_temperature;BME280_humidity;BME280_pressure;Samples;Min_cycle;Max_cycle;Signal;HPM_P1;HPM_P2
2021/04/01 00:02:06;;;;;;;50.75;27.75;;;12.40;81.70;;;;;;4991573;28;20256;-65
2021/04/01 00:04:33;;;;;;;38.67;27.35;;;12.40;82.00;;;;;;4990833;28;20222;-65
2021/04/01 00:07:00;;;;;;;43.47;28.58;;;12.40;81.90;;;;;;4995825;28;20239;-65
2021/04/01 00:09:27;;;;;;;35.65;25.55;;;12.40;81.90;;;;;;5001581;28;20209;-65
2021/04/01 00:11:54;;;;;;;40.45;26.95;;;12.30;81.80;;;;;;4997543;28;20293;-66
2021/04/01 00:14:23;;;;;;;32.90;26.48;;;12.30;82.10;;;;;;4991323;28;20216;-65
2021/04/01 00:16:50;;;;;;;40.97;25.80;;;12.30;81.80;;;;;;4993058;28;20217;-65
2021/04/01 00:19:17;;;;;;;37.33;26.25;;;12.30;82.50;;;;;;4997414;28;20265;-65
2021/04/01 00:21:44;;;;;;;31.15;24.05;;;12.30;82.10;;;;;;4997364;28;20209;-66
2021/04/01 00:24:10;;;;;;;38.45;26.35;;;12.20;82.00;;;;;;4997384;28;20240;-65
2021/04/01 00:26:37;;;;;;;40.60;24.67;;;12.20;82.20;;;;;;4994559;28;20236;-65
2021/04/01 00:29:03;;;;;;;36.67;25.13;;;12.10;82.20;;;;;;4986540;28;20381;-65
2021/04/01 00:31:30;;;;;;;33.67;24.65;;;12.10;82.40;;;;;;4996682;28;20217;-65
2021/04/01 00:33:58;;;;;;;38.70;26.73;;;12.00;83.00;;;;;;4997672;28;20228;-65
2021/04/01 00:36:24;;;;;;;41.17;27.48;;;12.00;83.90;;;;;;4984262;28;20218;-65
2021/04/01 00:38:51;;;;;;;37.40;26.83;;;11.90;83.80;;;;;;4996246;28;20272;-65
2021/04/01 00:41:18;;;;;;;34.38;24.73;;;11.80;83.70;;;;;;4995608;28;20411;-65
2021/04/01 00:43:44;;;;;;;41.17;25.02;;;11.80;84.30;;;;;;4996744;28;20212;-65
2021/04/01 00:46:11;;;;;;;35.53;27.00;;;11.80;83.50;;;;;;4986937;28;20300;-65
2021/04/01 00:48:38;;;;;;;34.30;23.50;;;11.80;83.60;;;;;;4996827;28;20308;-66
2021/04/01 00:51:05;;;;;;;32.95;24.95;;;11.80;83.40;;;;;;4997636;28;20209;-65
2021/04/01 00:53:31;;;;;;;38.13;24.38;;;11.70;83.60;;;;;;4991223;28;20210;-65
2021/04/01 00:55:58;;;;;;;34.03;24.02;;;11.70;84.30;;;;;;4997007;28;20268;-65
2021/04/01 00:58:25;;;;;;;40.60;25.60;;;11.70;84.30;;;;;;5002437;28;20213;-65
2021/04/01 01:01:23;;;;;;;37.70;24.58;;;11.50;85.60;;;;;;5002844;28;20499;-66
2021/04/01 01:03:50;;;;;;;37.30;25.20;;;11.40;86.40;;;;;;5001951;28;20568;-66
2021/04/01 01:06:17;;;;;;;39.38;25.83;;;11.30;85.90;;;;;;4999309;28;20558;-66
2021/04/01 01:08:44;;;;;;;38.40;27.42;;;11.20;87.00;;;;;;5005557;28;20219;-65
2021/04/01 01:11:11;;;;;;;39.35;26.88;;;11.20;87.40;;;;;;5001030;28;20204;-65
2021/04/01 01:13:38;;;;;;;33.33;24.27;;;11.20;87.10;;;;;;5000475;28;20483;-64
2021/04/01 01:16:05;;;;;;;30.73;22.88;;;11.30;86.60;;;;;;5006356;28;20720;-64
2021/04/01 01:18:32;;;;;;;34.50;23.90;;;11.30;86.00;;;;;;4984959;28;20271;-66
2021/04/01 01:21:02;;;;;;;42.13;24.05;;;11.30;87.20;;;;;;4985646;28;20264;-66
2021/04/01 01:23:29;;;;;;;40.75;25.15;;;11.20;86.80;;;;;;5001164;28;20414;-66
2021/04/01 01:25:57;;;;;;;36.13;25.75;;;11.20;86.90;;;;;;5002772;28;20212;-64
2021/04/01 01:28:25;;;;;;;34.00;24.73;;;11.20;87.30;;;;;;4996985;28;20431;-64
2021/04/01 01:30:52;;;;;;;36.08;24.20;;;11.20;86.90;;;;;;4990770;28;20307;-64
2021/04/01 01:33:22;;;;;;;34.50;24.23;;;11.20;87.10;;;;;;4998846;28;20205;-66
2021/04/01 01:35:51;;;;;;;32.17;22.83;;;11.10;87.00;;;;;;4980592;28;20217;-65
2021/04/01 01:38:19;;;;;;;36.58;24.23;;;11.00;88.00;;;;;;4997293;28;20216;-65
2021/04/01 01:40:46;;;;;;;29.90;21.83;;;11.00;86.90;;;;;;4999166;28;20213;-66
2021/04/01 01:43:15;;;;;;;34.47;22.20;;;11.00;87.00;;;;;;4996888;28;20214;-64
2021/04/01 01:45:43;;;;;;;34.35;24.10;;;11.00;87.00;;;;;;5005725;28;20211;-64
2021/04/01 01:48:10;;;;;;;36.00;23.52;;;11.00;87.40;;;;;;5000854;28;20251;-65
2021/04/01 01:50:39;;;;;;;30.75;23.58;;;10.80;88.30;;;;;;5000451;28;20391;-66
2021/04/01 01:53:07;;;;;;;34.40;24.27;;;10.80;88.30;;;;;;4998565;28;20221;-66
2021/04/01 01:55:35;;;;;;;29.40;22.92;;;10.80;88.30;;;;;;5000417;28;20286;-65
2021/04/01 01:58:03;;;;;;;33.40;22.17;;;10.70;89.00;;;;;;5000284;28;20208;-66
2021/04/01 02:00:44;;;;;;;30.08;22.45;;;10.60;89.20;;;;;;4999332;28;20378;-65
2021/04/01 02:03:12;;;;;;;30.85;22.70;;;10.70;88.50;;;;;;4999989;28;20282;-65
2021/04/01 02:05:39;;;;;;;31.52;23.02;;;10.70;88.70;;;;;;4998448;28;20209;-65
2021/04/01 02:08:08;;;;;;;30.45;23.70;;;10.80;88.50;;;;;;4999436;28;20243;-65
2021/04/01 02:10:41;;;;;;;29.20;22.35;;;10.70;88.20;;;;;;4996668;28;20520;-66
2021/04/01 02:13:08;;;;;;;34.28;24.55;;;10.70;88.10;;;;;;4999497;28;20458;-65
2021/04/01 02:15:40;;;;;;;30.00;22.10;;;10.60;88.50;;;;;;4998827;28;20303;-66
2021/04/01 02:18:12;;;;;;;34.60;23.77;;;10.50;88.90;;;;;;4998733;28;20231;-66
2021/04/01 02:20:42;;;;;;;36.55;24.80;;;10.40;89.80;;;;;;4999189;28;20220;-65
2021/04/01 02:23:15;;;;;;;33.60;24.52;;;10.50;89.00;;;;;;4999602;28;20209;-65
2021/04/01 02:25:43;;;;;;;32.83;23.05;;;10.60;88.70;;;;;;4999198;28;20232;-66
2021/04/01 02:28:12;;;;;;;32.40;22.25;;;10.60;88.30;;;;;;5012545;28;20246;-65
2021/04/01 02:30:41;;;;;;;35.30;23.48;;;10.60;88.50;;;;;;4998906;28;20212;-65
2021/04/01 02:33:08;;;;;;;27.63;20.42;;;10.60;88.40;;;;;;4999929;28;20528;-65
2021/04/01 02:35:36;;;;;;;34.50;22.10;;;10.60;88.20;;;;;;4985791;28;20211;-65
2021/04/01 02:38:03;;;;;;;29.08;21.65;;;10.60;88.20;;;;;;4999265;28;20518;-65
2021/04/01 02:40:30;;;;;;;29.27;23.00;;;10.60;88.30;;;;;;5003172;28;20211;-65
2021/04/01 02:42:57;;;;;;;33.10;23.13;;;10.50;88.30;;;;;;5018915;28;20211;-66
2021/04/01 02:45:24;;;;;;;31.05;22.63;;;10.50;88.40;;;;;;5001304;28;20209;-65
2021/04/01 02:47:50;;;;;;;40.20;28.55;;;10.50;88.90;;;;;;4998867;28;20247;-65
2021/04/01 02:50:18;;;;;;;36.15;24.45;;;10.50;89.70;;;;;;4993044;28;20508;-65
2021/04/01 02:52:45;;;;;;;37.00;26.10;;;10.50;89.80;;;;;;4992021;28;20217;-65
2021/04/01 02:55:13;;;;;;;36.47;25.50;;;10.50;90.00;;;;;;4998936;28;20308;-65
2021/04/01 02:57:41;;;;;;;31.90;23.20;;;10.50;90.00;;;;;;4999597;28;20216;-65
2021/04/01 03:00:11;;;;;;;38.42;25.23;;;10.50;90.00;;;;;;4997565;28;20283;-65
2021/04/01 03:02:42;;;;;;;35.60;24.55;;;10.50;90.00;;;;;;4999198;28;20239;-65
2021/04/01 03:05:11;;;;;;;38.25;23.60;;;10.40;90.10;;;;;;4999195;28;20330;-65
2021/04/01 03:07:40;;;;;;;38.10;27.70;;;10.40;90.20;;;;;;4998477;28;20542;-65
2021/04/01 03:10:11;;;;;;;35.15;25.88;;;10.50;90.10;;;;;;4998572;28;20215;-64
2021/04/01 03:12:37;;;;;;;37.38;24.17;;;10.50;90.00;;;;;;4998601;28;20465;-65
2021/04/01 03:15:07;;;;;;;34.95;24.13;;;10.50;90.00;;;;;;4998492;28;20223;-66
2021/04/01 03:17:34;;;;;;;40.40;26.30;;;10.50;90.00;;;;;;4998508;28;20245;-65
2021/04/01 03:20:02;;;;;;;33.65;24.55;;;10.50;90.00;;;;;;4997837;28;20220;-66
2021/04/01 03:22:29;;;;;;;40.13;25.48;;;10.50;90.00;;;;;;4998039;28;20280;-65
2021/04/01 03:24:56;;;;;;;42.92;26.77;;;10.50;90.10;;;;;;4984470;28;20506;-66
2021/04/01 03:27:23;;;;;;;36.08;25.15;;;10.40;90.10;;;;;;5004758;28;20232;-65
2021/04/01 03:30:08;;;;;;;35.00;25.90;;;10.40;90.10;;;;;;5000065;28;20212;-65
2021/04/01 03:32:46;;;;;;;36.17;23.95;;;10.40;90.10;;;;;;4987101;28;20240;-66
2021/04/01 03:35:15;;;;;;;31.55;24.40;;;10.40;90.10;;;;;;4997717;28;20213;-65
2021/04/01 03:37:44;;;;;;;31.92;23.60;;;10.30;90.00;;;;;;4994304;28;20312;-65
2021/04/01 03:40:11;;;;;;;33.78;24.67;;;10.30;90.00;;;;;;5007678;28;20207;-67
2021/04/01 03:42:38;;;;;;;36.55;25.05;;;10.20;90.10;;;;;;5002198;28;20211;-66
2021/04/01 03:45:10;;;;;;;35.28;23.38;;;10.20;90.40;;;;;;5016491;28;20482;-65
2021/04/01 03:47:41;;;;;;;33.33;24.35;;;10.10;90.60;;;;;;4995213;28;20229;-65
2021/04/01 03:50:09;;;;;;;38.30;25.08;;;10.10;90.70;;;;;;4996790;28;20234;-66
2021/04/01 03:52:37;;;;;;;39.60;24.17;;;10.00;90.60;;;;;;5001427;28;20222;-65
2021/04/01 03:55:15;;;;;;;45.20;24.20;;;9.90;90.70;;;;;;5009348;28;20221;-66
2021/04/01 03:57:43;;;;;;;40.42;24.98;;;9.90;90.80;;;;;;5003068;28;20207;-65
2021/04/01 04:02:59;;;;;;;47.63;27.42;;;9.70;91.30;;;;;;4996188;28;20228;-65
2021/04/01 04:13:27;;;;;;;44.75;27.48;;;9.50;91.90;;;;;;5002823;28;20204;-66
2021/04/01 04:15:54;;;;;;;47.53;27.05;;;9.50;92.00;;;;;;4997881;28;20203;-65
2021/04/01 04:18:23;;;;;;;41.00;25.80;;;9.50;92.00;;;;;;4989508;28;20385;-64
2021/04/01 04:20:50;;;;;;;41.25;25.60;;;9.50;92.00;;;;;;5012579;28;20248;-65
2021/04/01 04:23:19;;;;;;;42.15;24.98;;;9.40;92.00;;;;;;4999303;28;20214;-65
2021/04/01 04:25:45;;;;;;;41.53;27.55;;;9.40;92.20;;;;;;5007997;28;20539;-66
2021/04/01 04:30:48;;;;;;;31.05;23.52;;;9.30;92.20;;;;;;5011560;28;20217;-66
2021/04/01 04:33:14;;;;;;;40.70;24.33;;;9.40;92.00;;;;;;5000953;28;20216;-65
2021/04/01 04:35:41;;;;;;;36.75;25.23;;;9.40;91.90;;;;;;5005568;28;20232;-65
2021/04/01 04:38:08;;;;;;;42.08;26.25;;;9.40;92.00;;;;;;5011827;28;20279;-65
2021/04/01 04:40:34;;;;;;;38.47;23.95;;;9.50;92.00;;;;;;5009045;28;20548;-64
2021/04/01 04:43:01;;;;;;;41.92;25.70;;;9.50;91.80;;;;;;5004443;28;20394;-65
2021/04/01 04:45:28;;;;;;;36.70;25.02;;;9.50;91.80;;;;;;5010019;28;20277;-64
2021/04/01 04:47:55;;;;;;;41.85;23.98;;;9.60;91.60;;;;;;4994201;28;20241;-66
2021/04/01 04:50:21;;;;;;;45.95;24.33;;;9.60;91.40;;;;;;5006224;28;20214;-64
2021/04/01 04:52:48;;;;;;;37.72;24.80;;;9.80;91.20;;;;;;4993575;28;20219;-65
2021/04/01 04:55:16;;;;;;;36.33;24.13;;;9.90;91.00;;;;;;4996443;28;20306;-65
2021/04/01 04:57:47;;;;;;;36.92;23.17;;;10.00;91.00;;;;;;4997100;28;20810;-65
2021/04/01 05:05:27;;;;;;;37.88;24.80;;;10.80;89.70;;;;;;5000952;28;20240;-64
2021/04/01 05:07:53;;;;;;;36.33;23.83;;;11.10;88.90;;;;;;5001013;28;20242;-65
2021/04/01 05:10:20;;;;;;;40.97;25.48;;;11.30;88.70;;;;;;5000989;28;20223;-65
2021/04/01 05:12:54;;;;;;;38.83;26.30;;;11.70;87.30;;;;;;4985485;28;20202;-66
2021/04/01 05:15:21;;;;;;;31.63;24.60;;;11.90;85.70;;;;;;4983832;28;20217;-65
2021/04/01 05:17:47;;;;;;;35.25;23.33;;;12.40;84.30;;;;;;4996215;28;20213;-66
2021/04/01 05:20:15;;;;;;;35.63;24.17;;;13.00;81.50;;;;;;4999099;28;20217;-66
2021/04/01 05:23:02;;;;;;;37.40;24.13;;;13.50;79.70;;;;;;5000677;28;20221;-65
2021/04/01 05:25:29;;;;;;;28.55;21.80;;;13.70;77.30;;;;;;5001094;28;20407;-66
2021/04/01 05:28:01;;;;;;;48.15;24.58;;;14.10;75.00;;;;;;4984363;28;20238;-66
2021/04/01 05:30:27;;;;;;;36.70;25.25;;;14.70;74.20;;;;;;5001587;28;20202;-65
2021/04/01 05:32:54;;;;;;;40.00;26.40;;;15.10;71.20;;;;;;4990899;28;20212;-66
2021/04/01 05:35:21;;;;;;;42.50;25.70;;;15.40;70.90;;;;;;5001062;28;20454;-66
2021/04/01 05:37:48;;;;;;;41.00;30.40;;;15.80;68.70;;;;;;5001911;28;20455;-65
2021/04/01 05:40:15;;;;;;;46.80;29.90;;;16.30;67.00;;;;;;4989738;28;20454;-65
2021/04/01 05:42:46;;;;;;;57.87;31.70;;;16.80;64.40;;;;;;5001763;28;21004;-65
2021/04/01 05:45:18;;;;;;;40.77;27.13;;;17.20;62.40;;;;;;5001352;28;20425;-65
2021/04/01 05:47:54;;;;;;;39.07;26.97;;;17.90;60.30;;;;;;4994907;28;20499;-66
2021/04/01 05:54:07;;;;;;;39.63;30.73;;;18.60;57.00;;;;;;4996265;28;20994;-67
2021/04/01 06:04:40;;;;;;;35.63;26.90;;;21.70;48.30;;;;;;4978524;28;20993;-66
2021/04/01 06:07:18;;;;;;;38.63;28.40;;;22.80;45.90;;;;;;4989740;28;20463;-67
2021/04/01 06:09:50;;;;;;;38.37;28.17;;;23.10;43.80;;;;;;4999771;28;20414;-66
2021/04/01 06:12:17;;;;;;;37.53;28.60;;;23.50;42.50;;;;;;4991803;28;20444;-66
2021/04/01 06:15:01;;;;;;;46.60;30.00;;;23.90;41.60;;;;;;4986985;28;20762;-67
2021/04/01 06:17:32;;;;;;;35.50;28.80;;;24.40;40.90;;;;;;4990562;28;20464;-67
2021/04/01 06:20:02;;;;;;;39.17;27.70;;;25.20;39.30;;;;;;5006750;28;20432;-66
2021/04/01 06:22:29;;;;;;;42.47;28.10;;;25.30;38.40;;;;;;5006956;28;20507;-66
2021/04/01 06:24:56;;;;;;;30.13;26.70;;;24.40;39.90;;;;;;5001408;28;20446;-66
2021/04/01 06:28:12;;;;;;;39.77;27.00;;;23.60;41.50;;;;;;5006104;28;20872;-67
2021/04/01 06:30:23;;;;;;;28.00;23.83;;;23.30;41.70;;;;;;4989683;28;20447;-66
2021/04/01 06:33:10;;;;;;;34.00;25.13;;;22.80;42.50;;;;;;5005955;28;20912;-66
2021/04/01 06:35:48;;;;;;;44.93;26.23;;;22.30;43.40;;;;;;5007847;28;20659;-66
2021/04/01 06:41:12;;;;;;;41.27;26.83;;;22.50;43.70;;;;;;5007491;28;20422;-66
2021/04/01 06:43:48;;;;;;;38.70;24.50;;;23.10;42.70;;;;;;5008551;28;20435;-66
2021/04/01 06:46:17;;;;;;;35.57;25.20;;;23.40;42.70;;;;;;5001640;28;20447;-66
2021/04/01 06:51:28;;;;;;;35.37;25.73;;;24.00;41.00;;;;;;5000765;28;20446;-66
2021/04/01 07:02:25;;;;;;;38.40;24.83;;;21.70;45.70;;;;;;4994771;28;20434;-67
2021/04/01 07:04:58;;;;;;;34.87;23.53;;;21.30;46.50;;;;;;4996814;28;20939;-65
2021/04/01 07:07:27;;;;;;;48.17;25.33;;;20.70;48.00;;;;;;5001210;28;20626;-66
2021/04/01 07:12:36;;;;;;;42.33;24.40;;;20.10;49.60;;;;;;4998575;28;20428;-65
2021/04/01 07:15:12;;;;;;;32.17;24.43;;;20.50;49.70;;;;;;4998308;28;20638;-65
2021/04/01 07:18:05;;;;;;;34.90;22.97;;;20.90;49.10;;;;;;4998458;28;20730;-66
2021/04/01 07:46:28;;;;;;;42.60;22.20;;;25.40;39.30;;;;;;4995940;28;20736;-66
2021/04/01 07:49:03;;;;;;;33.57;24.20;;;25.00;40.50;;;;;;4997649;28;20813;-66
2021/04/01 07:54:30;;;;;;;37.67;23.70;;;24.80;40.90;;;;;;4996462;28;20604;-67
2021/04/01 07:57:16;;;;;;;36.20;23.93;;;24.90;40.80;;;;;;4992937;28;20418;-65
2021/04/01 08:04:52;;;;;;;36.97;21.37;;;26.10;39.80;;;;;;4988021;28;20502;-66
2021/04/01 08:07:22;;;;;;;31.73;21.77;;;26.00;38.90;;;;;;4974317;28;20465;-66
2021/04/01 08:09:57;;;;;;;23.63;19.93;;;25.50;39.00;;;;;;4982730;28;20771;-66
2021/04/01 08:12:30;;;;;;;23.63;20.50;;;24.90;40.00;;;;;;4981685;28;20463;-66
2021/04/01 08:15:11;;;;;;;35.40;20.97;;;24.50;40.10;;;;;;4989503;28;20450;-66
2021/04/01 08:18:04;;;;;;;23.53;19.33;;;24.10;41.60;;;;;;5001847;28;20717;-66
2021/04/01 08:20:34;;;;;;;28.53;20.27;;;23.80;41.40;;;;;;4999649;28;20418;-66
2021/04/01 08:23:22;;;;;;;25.90;21.00;;;23.90;41.50;;;;;;5001571;28;20599;-67
2021/04/01 08:35:06;;;;;;;24.60;21.80;;;23.00;44.00;;;;;;4999941;28;20424;-66
2021/04/01 08:40:53;;;;;;;29.80;21.17;;;23.80;41.90;;;;;;5001285;28;20491;-67
2021/04/01 08:43:54;;;;;;;32.63;22.20;;;25.00;39.10;;;;;;5001166;28;20540;-66
2021/04/01 08:47:01;;;;;;;32.77;23.40;;;26.70;38.30;;;;;;5000894;28;20821;-67
2021/04/01 08:50:03;;;;;;;26.17;20.07;;;27.20;35.40;;;;;;4989248;28;20554;-67
2021/04/01 08:52:30;;;;;;;24.00;19.67;;;27.60;36.30;;;;;;4984118;28;20439;-66
2021/04/01 08:55:35;;;;;;;23.80;20.87;;;27.10;35.50;;;;;;4987408;28;20645;-66
2021/04/01 08:58:20;;;;;;;42.80;23.67;;;25.80;37.50;;;;;;4976068;28;20791;-67
2021/04/01 09:00:56;;;;;;;37.43;22.53;;;25.40;38.00;;;;;;4990729;28;20721;-67
2021/04/01 09:03:32;;;;;;;31.57;22.47;;;24.90;39.90;;;;;;4991128;28;20459;-67
2021/04/01 09:06:01;;;;;;;28.13;23.20;;;24.20;40.20;;;;;;5000384;28;20451;-67
2021/04/01 09:08:31;;;;;;;34.67;25.20;;;23.60;41.60;;;;;;4992081;28;20509;-67
2021/04/01 09:11:00;;;;;;;40.00;23.93;;;23.40;43.40;;;;;;4991674;28;20459;-67
2021/04/01 09:13:32;;;;;;;27.07;22.00;;;23.30;43.40;;;;;;4996498;28;20447;-66
2021/04/01 09:16:10;;;;;;;36.37;22.03;;;23.30;43.00;;;;;;4997289;28;20422;-66
2021/04/01 09:18:38;;;;;;;31.93;21.70;;;23.30;43.40;;;;;;4991979;28;20443;-66
2021/04/01 09:21:05;;;;;;;32.00;22.47;;;23.20;43.50;;;;;;5003194;28;20701;-67
2021/04/01 09:23:41;;;;;;;28.93;21.03;;;23.60;42.80;;;;;;4990956;28;20448;-67
2021/04/01 09:26:09;;;;;;;26.20;21.93;;;23.50;42.80;;;;;;4990789;28;20431;-65
2021/04/01 09:28:41;;;;;;;29.20;22.50;;;23.40;43.50;;;;;;5005321;28;20490;-66
2021/04/01 09:31:13;;;;;;;24.77;20.47;;;23.40;43.60;;;;;;5020439;28;20757;-67
2021/04/01 09:33:41;;;;;;;28.63;22.30;;;23.30;43.50;;;;;;5005743;28;20810;-65
2021/04/01 09:36:18;;;;;;;33.50;21.87;;;23.30;43.60;;;;;;5008703;28;20443;-67
2021/04/01 09:38:51;;;;;;;38.83;23.07;;;23.10;44.00;;;;;;5018536;28;20412;-67
2021/04/01 09:41:25;;;;;;;29.37;23.00;;;22.90;44.90;;;;;;4995252;28;20467;-66
2021/04/01 09:43:52;;;;;;;35.73;23.37;;;23.00;44.50;;;;;;4994176;28;20459;-66
2021/04/01 09:46:21;;;;;;;32.13;22.60;;;23.20;45.00;;;;;;4992495;28;20577;-67
2021/04/01 09:49:02;;;;;;;31.40;22.63;;;23.10;45.10;;;;;;4999550;28;20606;-67
2021/04/01 09:51:31;;;;;;;30.00;22.97;;;22.90;44.90;;;;;;5008789;28;20499;-66
2021/04/01 09:53:58;;;;;;;36.73;23.10;;;22.70;45.70;;;;;;5004727;28;20447;-66
2021/04/01 09:56:28;;;;;;;32.93;23.90;;;22.60;45.50;;;;;;4999673;28;20456;-67
2021/04/01 09:58:56;;;;;;;33.80;23.13;;;22.60;46.10;;;;;;4995252;28;20539;-68
2021/04/01 10:04:09;;;;;;;30.87;23.33;;;22.40;46.90;;;;;;4987224;28;20782;-66
2021/04/01 10:06:43;;;;;;;39.17;23.00;;;22.60;46.60;;;;;;4987403;28;20454;-67
2021/04/01 10:09:15;;;;;;;31.63;23.13;;;22.50;47.10;;;;;;4985612;28;20419;-66
2021/04/01 10:12:07;;;;;;;27.40;22.70;;;22.60;45.40;;;;;;4986848;28;20419;-66
2021/04/01 10:14:51;;;;;;;26.90;23.53;;;22.60;45.20;;;;;;5002261;28;20429;-66
2021/04/01 10:17:22;;;;;;;39.80;25.60;;;22.60;44.60;;;;;;5001143;28;20455;-67
2021/04/01 10:19:54;;;;;;;29.30;23.77;;;22.30;45.60;;;;;;4990644;28;20665;-66
2021/04/01 10:22:28;;;;;;;34.07;23.23;;;22.00;46.50;;;;;;5001237;28;20414;-66
2021/04/01 10:25:24;;;;;;;29.67;22.27;;;22.00;46.00;;;;;;5000593;28;20514;-67
2021/04/01 10:30:30;;;;;;;35.53;24.23;;;21.50;46.60;;;;;;4982825;28;20429;-66
2021/04/01 10:33:33;;;;;;;36.60;22.47;;;21.30;47.40;;;;;;4992925;28;20468;-67
2021/04/01 10:36:07;;;;;;;26.23;23.00;;;21.40;48.00;;;;;;4958737;28;20455;-67
2021/04/01 10:38:36;;;;;;;31.57;23.70;;;21.40;47.50;;;;;;4995734;28;20588;-67
2021/04/01 10:41:18;;;;;;;34.57;25.17;;;21.80;47.70;;;;;;4989549;28;20422;-67
2021/04/01 10:43:45;;;;;;;33.50;25.33;;;22.20;47.30;;;;;;5000204;28;20743;-66
2021/04/01 10:46:19;;;;;;;34.47;25.17;;;22.20;46.80;;;;;;5000708;28;20422;-67
2021/04/01 10:48:55;;;;;;;38.90;25.10;;;22.30;47.00;;;;;;4992936;28;20512;-67
2021/04/01 10:51:24;;;;;;;29.87;24.77;;;22.30;47.00;;;;;;4998276;28;20422;-68
2021/04/01 10:53:51;;;;;;;32.83;24.80;;;22.40;46.90;;;;;;4998648;28;20418;-69
2021/04/01 10:56:18;;;;;;;31.40;24.57;;;22.60;46.60;;;;;;5003800;28;20429;-67
2021/04/01 10:58:53;;;;;;;32.00;25.97;;;22.60;46.00;;;;;;4988220;28;20426;-66
2021/04/01 11:01:23;;;;;;;31.63;25.33;;;22.70;45.40;;;;;;4985570;28;20429;-66
2021/04/01 11:03:57;;;;;;;35.67;24.30;;;22.70;46.10;;;;;;4984484;28;20468;-67
2021/04/01 11:06:28;;;;;;;30.10;25.57;;;22.90;46.10;;;;;;4983985;28;20749;-66
2021/04/01 11:08:58;;;;;;;32.93;24.67;;;23.10;45.30;;;;;;4983712;28;20684;-67
2021/04/01 11:11:55;;;;;;;31.40;25.43;;;23.10;45.40;;;;;;4992774;28;20455;-66
2021/04/01 11:14:28;;;;;;;34.57;25.40;;;23.20;45.10;;;;;;4997448;28;20454;-66
2021/04/01 11:17:08;;;;;;;38.07;25.73;;;23.10;43.90;;;;;;5006676;28;20449;-66
2021/04/01 11:19:36;;;;;;;26.93;24.13;;;22.90;45.20;;;;;;4999285;28;20422;-66
2021/04/01 11:22:04;;;;;;;28.50;24.03;;;23.00;44.90;;;;;;5014207;28;20418;-66
2021/04/01 11:24:32;;;;;;;29.03;25.07;;;22.80;44.30;;;;;;5003699;28;20424;-66
2021/04/01 11:27:29;;;;;;;35.40;24.50;;;22.70;43.70;;;;;;5010684;28;20756;-66
2021/04/01 11:29:58;;;;;;;28.17;23.30;;;22.50;44.50;;;;;;4992498;28;20453;-66
2021/04/01 11:32:27;;;;;;;31.43;24.77;;;22.20;45.30;;;;;;5004772;28;20421;-66
2021/04/01 11:34:57;;;;;;;29.43;23.83;;;22.10;45.10;;;;;;5008860;28;20422;-66
2021/04/01 11:37:35;;;;;;;30.70;23.73;;;22.00;45.70;;;;;;4996420;28;20621;-68
2021/04/01 11:40:08;;;;;;;31.03;24.03;;;21.90;45.70;;;;;;4998103;28;20448;-66
2021/04/01 11:42:35;;;;;;;27.33;23.03;;;21.90;45.80;;;;;;5012145;28;20428;-66
2021/04/01 11:45:07;;;;;;;34.73;23.17;;;21.70;46.00;;;;;;5006983;28;20635;-68
2021/04/01 11:47:39;;;;;;;25.47;21.83;;;21.70;47.60;;;;;;4996037;28;20486;-67
2021/04/01 11:50:07;;;;;;;29.73;23.30;;;21.60;47.40;;;;;;4997155;28;20521;-67
2021/04/01 11:52:33;;;;;;;31.90;24.50;;;21.50;47.30;;;;;;4991715;28;20573;-66
2021/04/01 11:55:11;;;;;;;29.37;24.37;;;21.30;48.70;;;;;;4992707;28;20426;-67
2021/04/01 11:57:43;;;;;;;29.57;23.80;;;21.30;48.50;;;;;;4990034;28;20423;-66
2021/04/01 12:00:17;;;;;;;30.73;23.33;;;21.30;48.70;;;;;;4989125;28;20764;-67
2021/04/01 12:03:13;;;;;;;25.93;22.90;;;21.30;49.10;;;;;;4997824;28;20452;-68
2021/04/01 12:05:44;;;;;;;28.57;23.00;;;21.40;48.40;;;;;;4996332;28;20434;-66
2021/04/01 12:08:11;;;;;;;28.80;23.50;;;21.60;48.30;;;;;;4991986;28;20450;-66
2021/04/01 12:10:39;;;;;;;30.50;24.70;;;22.00;47.00;;;;;;4989783;28;20424;-66
2021/04/01 12:13:07;;;;;;;38.27;26.83;;;22.20;47.00;;;;;;4993186;28;20450;-67
2021/04/01 12:15:39;;;;;;;34.53;24.77;;;22.20;46.90;;;;;;4994934;28;20740;-67
2021/04/01 12:18:08;;;;;;;32.17;24.00;;;22.40;46.90;;;;;;4996831;28;20441;-66
2021/04/01 12:20:37;;;;;;;29.80;24.07;;;22.40;46.60;;;;;;4997210;28;20760;-66
2021/04/01 12:23:20;;;;;;;27.17;24.17;;;22.80;46.70;;;;;;4981213;28;20425;-66
2021/04/01 12:25:48;;;;;;;36.27;24.47;;;23.00;44.80;;;;;;4977563;28;20419;-68
2021/04/01 12:28:22;;;;;;;28.20;23.93;;;23.00;44.60;;;;;;4994148;28;20453;-67
2021/04/01 12:30:51;;;;;;;31.93;24.57;;;23.00;45.20;;;;;;4997262;28;20458;-66
2021/04/01 12:33:21;;;;;;;29.63;24.90;;;23.10;43.80;;;;;;4996864;28;20826;-66
2021/04/01 12:35:55;;;;;;;30.10;22.60;;;22.90;43.30;;;;;;4996711;28;20426;-69
2021/04/01 12:38:31;;;;;;;29.93;24.83;;;22.40;40.50;;;;;;4983189;28;20452;-66
2021/04/01 12:41:00;;;;;;;35.00;25.33;;;22.10;40.20;;;;;;4996995;28;20739;-66
2021/04/01 12:43:45;;;;;;;35.03;23.23;;;22.10;40.30;;;;;;4995139;28;20426;-66
2021/04/01 12:46:12;;;;;;;28.17;24.07;;;22.50;40.40;;;;;;4988573;28;20448;-66
2021/04/01 12:48:54;;;;;;;33.13;25.70;;;22.60;40.50;;;;;;4982760;28;20552;-66
2021/04/01 12:51:22;;;;;;;30.17;25.13;;;22.60;40.60;;;;;;4996836;28;20440;-67
2021/04/01 12:54:19;;;;;;;29.33;23.60;;;22.60;40.90;;;;;;4996128;28;20418;-66
2021/04/01 12:56:53;;;;;;;29.10;24.03;;;22.40;40.90;;;;;;4995864;28;20423;-67
2021/04/01 12:59:35;;;;;;;30.47;25.43;;;22.20;40.30;;;;;;4984407;28;20429;-67
2021/04/01 13:02:14;;;;;;;27.50;24.00;;;22.00;40.50;;;;;;4994408;28;20430;-66
2021/04/01 13:04:53;;;;;;;33.33;25.97;;;21.70;41.20;;;;;;4999841;28;20425;-69
2021/04/01 13:07:27;;;;;;;32.00;24.43;;;21.20;42.70;;;;;;5002523;28;20451;-68
2021/04/01 13:12:26;;;;;;;27.77;24.13;;;20.80;43.80;;;;;;5015301;28;20550;-68
2021/04/01 13:14:53;;;;;;;30.93;24.00;;;20.90;43.80;;;;;;5005753;28;20751;-67
2021/04/01 13:17:20;;;;;;;34.70;28.00;;;20.70;44.90;;;;;;5007892;28;20436;-67
2021/04/01 13:19:46;;;;;;;32.93;24.67;;;20.40;45.90;;;;;;5011829;28;20427;-67
2021/04/01 13:22:16;;;;;;;31.83;26.27;;;20.30;46.30;;;;;;5004008;28;20439;-68
2021/04/01 13:25:05;;;;;;;31.00;24.47;;;20.20;46.60;;;;;;5013827;28;20449;-68
2021/04/01 13:27:30;;;;;;;34.53;26.40;;;19.90;46.60;;;;;;5009254;28;20713;-68
2021/04/01 13:30:00;;;;;;;35.23;24.73;;;19.80;46.80;;;;;;5009232;28;20751;-68
2021/04/01 13:32:35;;;;;;;27.23;22.90;;;19.70;46.40;;;;;;4985151;28;20445;-67
2021/04/01 13:35:12;;;;;;;35.37;25.83;;;19.70;46.40;;;;;;4996557;28;20430;-66
2021/04/01 13:37:46;;;;;;;34.77;26.03;;;19.60;46.90;;;;;;4999586;28;20462;-66
2021/04/01 13:40:15;;;;;;;28.50;24.33;;;19.40;47.50;;;;;;4991032;28;20471;-67
2021/04/01 13:42:49;;;;;;;34.93;26.40;;;19.40;47.80;;;;;;4984871;28;20450;-66
2021/04/01 13:45:19;;;;;;;32.87;25.50;;;19.50;47.90;;;;;;4987493;28;20454;-68
2021/04/01 13:47:51;;;;;;;33.57;25.57;;;19.50;48.20;;;;;;4995018;28;20495;-67
2021/04/01 13:50:19;;;;;;;33.50;27.37;;;19.60;48.40;;;;;;5008312;28;20433;-66
2021/04/01 13:55:24;;;;;;;31.90;23.47;;;19.60;48.00;;;;;;5008760;28;20661;-66
2021/04/01 14:11:19;;;;;;;33.80;23.87;;;18.90;50.10;;;;;;4982707;28;20425;-67
2021/04/01 14:13:46;;;;;;;30.20;24.13;;;18.80;50.30;;;;;;4998697;28;20424;-69
2021/04/01 14:16:16;;;;;;;32.80;24.93;;;18.90;50.00;;;;;;4999357;28;20766;-66
2021/04/01 14:18:48;;;;;;;33.43;25.00;;;18.80;50.50;;;;;;4999032;28;20433;-66
2021/04/01 14:21:22;;;;;;;29.93;21.63;;;18.90;50.40;;;;;;5013779;28;20421;-66
2021/04/01 14:23:52;;;;;;;35.67;27.00;;;19.00;50.20;;;;;;5018783;28;20425;-66
2021/04/01 14:28:46;;;;;;;33.87;23.73;;;19.10;49.90;;;;;;5010112;28;20538;-68
2021/04/01 14:31:14;;;;;;;35.10;24.57;;;19.10;50.00;;;;;;5019006;28;20532;-66
2021/04/01 14:33:42;;;;;;;32.40;22.20;;;19.30;49.40;;;;;;4997412;28;20629;-66
2021/04/01 14:36:19;;;;;;;33.70;25.43;;;19.60;48.70;;;;;;4992613;28;20464;-66
2021/04/01 14:38:46;;;;;;;34.50;24.70;;;20.10;48.30;;;;;;4978929;28;20424;-66
2021/04/01 14:46:16;;;;;;;31.23;22.83;;;21.00;46.30;;;;;;4998636;28;20428;-68
2021/04/01 14:48:42;;;;;;;38.80;24.00;;;20.60;46.50;;;;;;4992643;28;20475;-66
2021/04/01 14:51:11;;;;;;;33.80;23.20;;;20.20;47.60;;;;;;5004010;28;20473;-66
2021/04/01 14:53:48;;;;;;;36.23;24.20;;;19.70;48.30;;;;;;4997047;28;20443;-67
2021/04/01 14:56:18;;;;;;;31.17;23.20;;;19.50;48.90;;;;;;4994731;28;20447;-66